sensor_id;sensor_type;location;lat;lon;timestamp;P1;durP1;ratioP1;P2;durP2;ratioP2
14181;SDS011;7171;50.936;6.764;2024-01-11T00:00:53;17.00;;;7.67;;
14181;SDS011;7171;50.936;6.764;2024-01-11T00:03:20;12.83;;;7.27;;
14181;SDS011;7171;50.936;6.764;2024-01-11T00:05:47;19.33;;;8.03;;
14181;SDS011;7171;50.936;6.764;2024-01-11T00:08:13;12.80;;;8.40;;
14181;SDS011;7171;50.936;6.764;2024-01-11T00:10:40;11.07;;;8.33;;
14181;SDS011;7171;50.936;6.764;2024-01-11T00:13:07;13.47;;;8.13;;
14181;SDS011;7171;50.936;6.764;2024-01-11T00:15:33;14.37;;;7.27;;
14181;SDS011;7171;50.936;6.764;2024-01-11T00:18:01;13.20;;;7.17;;
14181;SDS011;7171;50.936;6.764;2024-01-11T00:20:29;12.20;;;6.93;;
14181;SDS011;7171;50.936;6.764;2024-01-11T00:22:55;14.93;;;7.80;;
14181;SDS011;7171;50.936;6.764;2024-01-11T00:25:22;16.90;;;6.57;;
14181;SDS011;7171;50.936;6.764;2024-01-11T00:27:49;10.67;;;6.63;;
14181;SDS011;7171;50.936;6.764;2024-01-11T00:30:15;13.50;;;8.43;;
14181;SDS011;7171;50.936;6.764;2024-01-11T00:32:42;14.13;;;7.17;;
14181;SDS011;7171;50.936;6.764;2024-01-11T00:35:10;13.10;;;8.33;;
14181;SDS011;7171;50.936;6.764;2024-01-11T00:37:37;11.23;;;7.63;;
14181;SDS011;7171;50.936;6.764;2024-01-11T00:40:04;14.13;;;8.17;;
14181;SDS011;7171;50.936;6.764;2024-01-11T00:42:32;11.03;;;6.60;;
14181;SDS011;7171;50.936;6.764;2024-01-11T00:44:59;11.80;;;6.80;;
14181;SDS011;7171;50.936;6.764;2024-01-11T00:47:26;10.77;;;6.67;;
14181;SDS011;7171;50.936;6.764;2024-01-11T00:49:53;14.70;;;6.93;;
14181;SDS011;7171;50.936;6.764;2024-01-11T00:52:21;13.00;;;7.63;;
14181;SDS011;7171;50.936;6.764;2024-01-11T00:54:48;9.53;;;6.30;;
14181;SDS011;7171;50.936;6.764;2024-01-11T00:57:14;9.53;;;7.17;;
14181;SDS011;7171;50.936;6.764;2024-01-11T00:59:41;11.33;;;8.23;;
14181;SDS011;7171;50.936;6.764;2024-01-11T01:02:08;8.97;;;6.13;;
14181;SDS011;7171;50.936;6.764;2024-01-11T01:04:37;9.37;;;6.53;;
14181;SDS011;7171;50.936;6.764;2024-01-11T01:07:04;16.63;;;6.80;;
14181;SDS011;7171;50.936;6.764;2024-01-11T01:09:32;15.23;;;7.97;;
14181;SDS011;7171;50.936;6.764;2024-01-11T01:11:59;9.77;;;7.53;;
14181;SDS011;7171;50.936;6.764;2024-01-11T01:14:26;12.90;;;6.03;;
14181;SDS011;7171;50.936;6.764;2024-01-11T01:16:53;13.63;;;8.23;;
14181;SDS011;7171;50.936;6.764;2024-01-11T01:19:20;10.13;;;6.37;;
14181;SDS011;7171;50.936;6.764;2024-01-11T01:21:45;13.47;;;8.33;;
14181;SDS011;7171;50.936;6.764;2024-01-11T01:24:12;14.83;;;7.80;;
14181;SDS011;7171;50.936;6.764;2024-01-11T01:26:40;12.67;;;7.13;;
14181;SDS011;7171;50.936;6.764;2024-01-11T01:29:07;8.07;;;5.50;;
14181;SDS011;7171;50.936;6.764;2024-01-11T01:31:33;12.27;;;6.83;;
14181;SDS011;7171;50.936;6.764;2024-01-11T01:34:02;12.87;;;7.13;;
14181;SDS011;7171;50.936;6.764;2024-01-11T01:36:29;10.10;;;6.80;;
14181;SDS011;7171;50.936;6.764;2024-01-11T01:38:56;13.03;;;6.73;;
14181;SDS011;7171;50.936;6.764;2024-01-11T01:41:23;12.53;;;6.53;;
14181;SDS011;7171;50.936;6.764;2024-01-11T01:43:51;11.93;;;6.67;;
14181;SDS011;7171;50.936;6.764;2024-01-11T01:46:19;12.10;;;5.73;;
14181;SDS011;7171;50.936;6.764;2024-01-11T01:48:49;9.70;;;6.83;;
14181;SDS011;7171;50.936;6.764;2024-01-11T01:51:16;12.37;;;7.10;;
14181;SDS011;7171;50.936;6.764;2024-01-11T01:53:43;9.90;;;6.00;;
14181;SDS011;7171;50.936;6.764;2024-01-11T01:56:10;9.23;;;5.43;;
14181;SDS011;7171;50.936;6.764;2024-01-11T01:58:37;10.13;;;6.63;;
14181;SDS011;7171;50.936;6.764;2024-01-11T02:01:05;10.43;;;6.30;;
14181;SDS011;7171;50.936;6.764;2024-01-11T02:03:32;10.57;;;6.03;;
14181;SDS011;7171;50.936;6.764;2024-01-11T02:06:01;9.57;;;6.70;;
14181;SDS011;7171;50.936;6.764;2024-01-11T02:08:30;12.90;;;6.80;;
14181;SDS011;7171;50.936;6.764;2024-01-11T02:10:58;16.03;;;6.30;;
14181;SDS011;7171;50.936;6.764;2024-01-11T02:13:27;11.63;;;5.77;;
14181;SDS011;7171;50.936;6.764;2024-01-11T02:15:54;9.93;;;5.47;;
14181;SDS011;7171;50.936;6.764;2024-01-11T02:18:22;20.43;;;7.63;;
14181;SDS011;7171;50.936;6.764;2024-01-11T02:20:49;17.73;;;8.73;;
14181;SDS011;7171;50.936;6.764;2024-01-11T02:23:17;9.60;;;5.60;;
14181;SDS011;7171;50.936;6.764;2024-01-11T02:25:46;10.10;;;6.77;;
14181;SDS011;7171;50.936;6.764;2024-01-11T02:28:14;9.60;;;6.70;;
14181;SDS011;7171;50.936;6.764;2024-01-11T02:30:40;10.87;;;7.47;;
14181;SDS011;7171;50.936;6.764;2024-01-11T02:33:07;11.20;;;6.63;;
14181;SDS011;7171;50.936;6.764;2024-01-11T02:35:34;10.70;;;7.40;;
14181;SDS011;7171;50.936;6.764;2024-01-11T02:38:03;8.90;;;6.67;;
14181;SDS011;7171;50.936;6.764;2024-01-11T02:40:31;14.83;;;7.40;;
14181;SDS011;7171;50.936;6.764;2024-01-11T02:43:07;11.47;;;6.50;;
14181;SDS011;7171;50.936;6.764;2024-01-11T02:45:34;6.13;;;4.50;;
14181;SDS011;7171;50.936;6.764;2024-01-11T02:48:01;10.50;;;6.20;;
14181;SDS011;7171;50.936;6.764;2024-01-11T02:50:28;13.90;;;8.70;;
14181;SDS011;7171;50.936;6.764;2024-01-11T02:52:54;17.90;;;6.87;;
14181;SDS011;7171;50.936;6.764;2024-01-11T02:55:21;8.50;;;5.67;;
14181;SDS011;7171;50.936;6.764;2024-01-11T02:57:48;12.00;;;6.47;;
14181;SDS011;7171;50.936;6.764;2024-01-11T03:00:16;8.93;;;6.53;;
14181;SDS011;7171;50.936;6.764;2024-01-11T03:02:43;17.10;;;7.57;;
14181;SDS011;7171;50.936;6.764;2024-01-11T03:05:09;12.23;;;6.60;;
14181;SDS011;7171;50.936;6.764;2024-01-11T03:07:36;9.17;;;6.00;;
14181;SDS011;7171;50.936;6.764;2024-01-11T03:10:04;7.90;;;6.63;;
14181;SDS011;7171;50.936;6.764;2024-01-11T03:12:31;10.43;;;6.10;;
14181;SDS011;7171;50.936;6.764;2024-01-11T03:14:58;18.70;;;9.07;;
14181;SDS011;7171;50.936;6.764;2024-01-11T03:17:26;9.10;;;5.53;;
14181;SDS011;7171;50.936;6.764;2024-01-11T03:19:53;9.07;;;6.27;;
14181;SDS011;7171;50.936;6.764;2024-01-11T03:22:20;8.63;;;5.23;;
14181;SDS011;7171;50.936;6.764;2024-01-11T03:24:47;11.17;;;5.23;;
14181;SDS011;7171;50.936;6.764;2024-01-11T03:27:13;12.90;;;6.53;;
14181;SDS011;7171;50.936;6.764;2024-01-11T03:29:40;8.53;;;5.60;;
14181;SDS011;7171;50.936;6.764;2024-01-11T03:32:07;23.00;;;6.00;;
14181;SDS011;7171;50.936;6.764;2024-01-11T03:34:39;8.30;;;5.93;;
14181;SDS011;7171;50.936;6.764;2024-01-11T03:37:06;13.47;;;7.10;;
14181;SDS011;7171;50.936;6.764;2024-01-11T03:39:33;17.47;;;7.77;;
14181;SDS011;7171;50.936;6.764;2024-01-11T03:42:00;11.33;;;6.60;;
14181;SDS011;7171;50.936;6.764;2024-01-11T03:44:28;14.13;;;6.87;;
14181;SDS011;7171;50.936;6.764;2024-01-11T03:46:56;11.43;;;7.27;;
14181;SDS011;7171;50.936;6.764;2024-01-11T03:49:22;14.17;;;8.70;;
14181;SDS011;7171;50.936;6.764;2024-01-11T03:51:50;9.67;;;6.40;;
14181;SDS011;7171;50.936;6.764;2024-01-11T03:54:17;12.03;;;6.27;;
14181;SDS011;7171;50.936;6.764;2024-01-11T03:56:44;12.57;;;6.20;;
14181;SDS011;7171;50.936;6.764;2024-01-11T03:59:10;12.13;;;7.47;;
14181;SDS011;7171;50.936;6.764;2024-01-11T04:01:38;12.73;;;7.87;;
14181;SDS011;7171;50.936;6.764;2024-01-11T04:04:06;13.03;;;7.33;;
14181;SDS011;7171;50.936;6.764;2024-01-11T04:06:32;10.60;;;6.63;;
14181;SDS011;7171;50.936;6.764;2024-01-11T04:09:00;17.27;;;6.77;;
14181;SDS011;7171;50.936;6.764;2024-01-11T04:11:27;10.30;;;5.93;;
14181;SDS011;7171;50.936;6.764;2024-01-11T04:13:54;8.77;;;4.90;;
14181;SDS011;7171;50.936;6.764;2024-01-11T04:16:21;8.60;;;6.17;;
14181;SDS011;7171;50.936;6.764;2024-01-11T04:18:48;8.60;;;6.00;;
14181;SDS011;7171;50.936;6.764;2024-01-11T04:21:21;11.93;;;6.40;;
14181;SDS011;7171;50.936;6.764;2024-01-11T04:23:48;16.73;;;7.33;;
14181;SDS011;7171;50.936;6.764;2024-01-11T04:26:16;16.67;;;8.83;;
14181;SDS011;7171;50.936;6.764;2024-01-11T04:28:44;10.73;;;6.47;;
14181;SDS011;7171;50.936;6.764;2024-01-11T04:31:11;10.30;;;5.80;;
14181;SDS011;7171;50.936;6.764;2024-01-11T04:33:39;8.13;;;6.40;;
14181;SDS011;7171;50.936;6.764;2024-01-11T04:36:06;12.73;;;7.57;;
14181;SDS011;7171;50.936;6.764;2024-01-11T04:38:33;9.83;;;6.17;;
14181;SDS011;7171;50.936;6.764;2024-01-11T04:41:00;11.53;;;6.50;;
14181;SDS011;7171;50.936;6.764;2024-01-11T04:43:28;11.83;;;6.70;;
14181;SDS011;7171;50.936;6.764;2024-01-11T04:45:54;9.67;;;6.50;;
14181;SDS011;7171;50.936;6.764;2024-01-11T04:48:21;11.10;;;7.60;;
14181;SDS011;7171;50.936;6.764;2024-01-11T04:50:48;8.30;;;5.97;;
14181;SDS011;7171;50.936;6.764;2024-01-11T04:53:14;15.30;;;6.47;;
14181;SDS011;7171;50.936;6.764;2024-01-11T04:55:41;13.17;;;7.07;;
14181;SDS011;7171;50.936;6.764;2024-01-11T04:58:08;11.10;;;6.90;;
14181;SDS011;7171;50.936;6.764;2024-01-11T05:00:36;12.50;;;5.93;;
14181;SDS011;7171;50.936;6.764;2024-01-11T05:03:03;16.03;;;7.20;;
14181;SDS011;7171;50.936;6.764;2024-01-11T05:05:30;12.83;;;8.17;;
14181;SDS011;7171;50.936;6.764;2024-01-11T05:07:56;22.23;;;7.60;;
14181;SDS011;7171;50.936;6.764;2024-01-11T05:10:23;8.60;;;5.80;;
14181;SDS011;7171;50.936;6.764;2024-01-11T05:12:50;13.00;;;7.23;;
14181;SDS011;7171;50.936;6.764;2024-01-11T05:15:16;10.87;;;7.83;;
14181;SDS011;7171;50.936;6.764;2024-01-11T05:17:44;10.50;;;6.30;;
14181;SDS011;7171;50.936;6.764;2024-01-11T05:20:11;10.37;;;7.03;;
14181;SDS011;7171;50.936;6.764;2024-01-11T05:22:38;10.27;;;6.87;;
14181;SDS011;7171;50.936;6.764;2024-01-11T05:25:05;14.90;;;7.03;;
14181;SDS011;7171;50.936;6.764;2024-01-11T05:27:32;13.23;;;7.60;;
14181;SDS011;7171;50.936;6.764;2024-01-11T05:29:58;9.37;;;6.57;;
14181;SDS011;7171;50.936;6.764;2024-01-11T05:32:25;11.23;;;6.97;;
14181;SDS011;7171;50.936;6.764;2024-01-11T05:34:53;12.97;;;6.43;;
14181;SDS011;7171;50.936;6.764;2024-01-11T05:37:20;10.83;;;5.53;;
14181;SDS011;7171;50.936;6.764;2024-01-11T05:39:46;16.33;;;7.47;;
14181;SDS011;7171;50.936;6.764;2024-01-11T05:42:13;9.60;;;6.07;;
14181;SDS011;7171;50.936;6.764;2024-01-11T05:44:40;11.93;;;6.63;;
14181;SDS011;7171;50.936;6.764;2024-01-11T05:47:07;10.27;;;6.63;;
14181;SDS011;7171;50.936;6.764;2024-01-11T05:49:33;10.80;;;7.07;;
14181;SDS011;7171;50.936;6.764;2024-01-11T05:52:01;12.97;;;7.67;;
14181;SDS011;7171;50.936;6.764;2024-01-11T05:54:28;12.80;;;7.60;;
14181;SDS011;7171;50.936;6.764;2024-01-11T05:56:55;13.07;;;6.80;;
14181;SDS011;7171;50.936;6.764;2024-01-11T05:59:23;10.57;;;6.90;;
14181;SDS011;7171;50.936;6.764;2024-01-11T06:01:50;8.70;;;6.37;;
14181;SDS011;7171;50.936;6.764;2024-01-11T06:04:16;13.73;;;7.00;;
14181;SDS011;7171;50.936;6.764;2024-01-11T06:06:43;15.23;;;7.57;;
14181;SDS011;7171;50.936;6.764;2024-01-11T06:09:11;14.47;;;6.63;;
14181;SDS011;7171;50.936;6.764;2024-01-11T06:11:38;8.00;;;6.07;;
14181;SDS011;7171;50.936;6.764;2024-01-11T06:14:05;11.90;;;7.47;;
14181;SDS011;7171;50.936;6.764;2024-01-11T06:16:31;16.73;;;8.40;;
14181;SDS011;7171;50.936;6.764;2024-01-11T06:18:58;12.70;;;6.67;;
14181;SDS011;7171;50.936;6.764;2024-01-11T06:21:25;10.87;;;7.27;;
14181;SDS011;7171;50.936;6.764;2024-01-11T06:23:51;16.33;;;8.20;;
14181;SDS011;7171;50.936;6.764;2024-01-11T06:26:19;10.50;;;6.77;;
14181;SDS011;7171;50.936;6.764;2024-01-11T06:28:47;11.87;;;6.93;;
14181;SDS011;7171;50.936;6.764;2024-01-11T06:31:14;22.37;;;7.67;;
14181;SDS011;7171;50.936;6.764;2024-01-11T06:33:41;9.07;;;7.20;;
14181;SDS011;7171;50.936;6.764;2024-01-11T06:36:07;15.40;;;8.20;;
14181;SDS011;7171;50.936;6.764;2024-01-11T06:38:34;16.23;;;7.00;;
14181;SDS011;7171;50.936;6.764;2024-01-11T06:41:01;13.23;;;5.80;;
14181;SDS011;7171;50.936;6.764;2024-01-11T06:43:29;9.67;;;6.90;;
14181;SDS011;7171;50.936;6.764;2024-01-11T06:45:56;18.43;;;8.57;;
14181;SDS011;7171;50.936;6.764;2024-01-11T06:48:28;10.60;;;7.00;;
14181;SDS011;7171;50.936;6.764;2024-01-11T06:50:54;14.90;;;6.90;;
14181;SDS011;7171;50.936;6.764;2024-01-11T06:53:21;11.53;;;7.47;;
14181;SDS011;7171;50.936;6.764;2024-01-11T06:55:48;17.53;;;7.83;;
14181;SDS011;7171;50.936;6.764;2024-01-11T06:58:17;13.20;;;5.33;;
14181;SDS011;7171;50.936;6.764;2024-01-11T07:00:47;27.70;;;7.63;;
14181;SDS011;7171;50.936;6.764;2024-01-11T07:03:14;13.57;;;6.73;;
14181;SDS011;7171;50.936;6.764;2024-01-11T07:05:41;12.77;;;6.97;;
14181;SDS011;7171;50.936;6.764;2024-01-11T07:08:08;12.60;;;6.90;;
14181;SDS011;7171;50.936;6.764;2024-01-11T07:10:34;12.63;;;5.77;;
14181;SDS011;7171;50.936;6.764;2024-01-11T07:13:02;10.90;;;6.57;;
14181;SDS011;7171;50.936;6.764;2024-01-11T07:15:29;14.13;;;7.17;;
14181;SDS011;7171;50.936;6.764;2024-01-11T07:17:57;15.37;;;7.60;;
14181;SDS011;7171;50.936;6.764;2024-01-11T07:20:24;12.50;;;6.30;;
14181;SDS011;7171;50.936;6.764;2024-01-11T07:22:51;11.50;;;6.63;;
14181;SDS011;7171;50.936;6.764;2024-01-11T07:25:17;8.53;;;6.70;;
14181;SDS011;7171;50.936;6.764;2024-01-11T07:27:44;10.37;;;6.00;;
14181;SDS011;7171;50.936;6.764;2024-01-11T07:30:11;11.33;;;6.43;;
14181;SDS011;7171;50.936;6.764;2024-01-11T07:32:38;12.77;;;6.37;;
14181;SDS011;7171;50.936;6.764;2024-01-11T07:35:07;13.47;;;6.73;;
14181;SDS011;7171;50.936;6.764;2024-01-11T07:37:35;8.33;;;5.27;;
14181;SDS011;7171;50.936;6.764;2024-01-11T07:40:02;11.60;;;7.40;;
14181;SDS011;7171;50.936;6.764;2024-01-11T07:42:30;8.73;;;5.57;;
14181;SDS011;7171;50.936;6.764;2024-01-11T07:44:56;8.90;;;6.10;;
14181;SDS011;7171;50.936;6.764;2024-01-11T07:47:23;9.10;;;5.90;;
14181;SDS011;7171;50.936;6.764;2024-01-11T07:49:50;11.03;;;7.33;;
14181;SDS011;7171;50.936;6.764;2024-01-11T07:52:18;11.00;;;6.50;;
14181;SDS011;7171;50.936;6.764;2024-01-11T07:54:44;12.27;;;6.50;;
14181;SDS011;7171;50.936;6.764;2024-01-11T07:57:11;8.30;;;5.93;;
14181;SDS011;7171;50.936;6.764;2024-01-11T07:59:38;12.47;;;6.67;;
14181;SDS011;7171;50.936;6.764;2024-01-11T08:02:05;17.30;;;8.73;;
14181;SDS011;7171;50.936;6.764;2024-01-11T08:04:32;7.50;;;5.83;;
14181;SDS011;7171;50.936;6.764;2024-01-11T08:06:59;14.60;;;8.40;;
14181;SDS011;7171;50.936;6.764;2024-01-11T08:09:28;20.23;;;7.87;;
14181;SDS011;7171;50.936;6.764;2024-01-11T08:11:56;9.87;;;6.33;;
14181;SDS011;7171;50.936;6.764;2024-01-11T08:14:23;11.93;;;7.13;;
14181;SDS011;7171;50.936;6.764;2024-01-11T08:16:50;9.90;;;6.50;;
14181;SDS011;7171;50.936;6.764;2024-01-11T08:19:18;14.13;;;7.53;;
14181;SDS011;7171;50.936;6.764;2024-01-11T08:21:45;14.77;;;7.53;;
14181;SDS011;7171;50.936;6.764;2024-01-11T08:24:12;13.53;;;6.50;;
14181;SDS011;7171;50.936;6.764;2024-01-11T08:26:40;12.80;;;8.10;;
14181;SDS011;7171;50.936;6.764;2024-01-11T08:29:06;9.80;;;6.17;;
14181;SDS011;7171;50.936;6.764;2024-01-11T08:31:34;15.33;;;6.37;;
14181;SDS011;7171;50.936;6.764;2024-01-11T08:34:01;16.43;;;6.77;;
14181;SDS011;7171;50.936;6.764;2024-01-11T08:36:30;11.40;;;7.47;;
14181;SDS011;7171;50.936;6.764;2024-01-11T08:38:59;12.50;;;6.40;;
14181;SDS011;7171;50.936;6.764;2024-01-11T08:41:25;10.97;;;8.17;;
14181;SDS011;7171;50.936;6.764;2024-01-11T08:43:53;13.57;;;6.30;;
14181;SDS011;7171;50.936;6.764;2024-01-11T08:46:23;15.50;;;8.53;;
14181;SDS011;7171;50.936;6.764;2024-01-11T08:48:51;9.90;;;6.80;;
14181;SDS011;7171;50.936;6.764;2024-01-11T08:51:17;12.60;;;7.50;;
14181;SDS011;7171;50.936;6.764;2024-01-11T08:53:44;10.70;;;7.37;;
14181;SDS011;7171;50.936;6.764;2024-01-11T08:56:11;11.93;;;7.43;;
14181;SDS011;7171;50.936;6.764;2024-01-11T08:58:37;10.43;;;7.37;;
14181;SDS011;7171;50.936;6.764;2024-01-11T09:01:07;9.77;;;7.90;;
14181;SDS011;7171;50.936;6.764;2024-01-11T09:03:35;14.57;;;8.23;;
14181;SDS011;7171;50.936;6.764;2024-01-11T09:06:02;11.20;;;6.93;;
14181;SDS011;7171;50.936;6.764;2024-01-11T09:08:29;19.17;;;8.97;;
14181;SDS011;7171;50.936;6.764;2024-01-11T09:10:56;13.87;;;7.03;;
14181;SDS011;7171;50.936;6.764;2024-01-11T09:13:23;24.13;;;9.17;;
14181;SDS011;7171;50.936;6.764;2024-01-11T09:15:51;11.50;;;7.53;;
14181;SDS011;7171;50.936;6.764;2024-01-11T09:18:19;18.23;;;9.37;;
14181;SDS011;7171;50.936;6.764;2024-01-11T09:20:46;17.07;;;10.10;;
14181;SDS011;7171;50.936;6.764;2024-01-11T09:23:13;14.47;;;8.80;;
14181;SDS011;7171;50.936;6.764;2024-01-11T09:25:41;10.10;;;6.53;;
14181;SDS011;7171;50.936;6.764;2024-01-11T09:28:07;23.07;;;8.50;;
14181;SDS011;7171;50.936;6.764;2024-01-11T09:30:34;17.57;;;9.63;;
14181;SDS011;7171;50.936;6.764;2024-01-11T09:33:01;13.60;;;8.50;;
14181;SDS011;7171;50.936;6.764;2024-01-11T09:35:29;15.80;;;9.47;;
14181;SDS011;7171;50.936;6.764;2024-01-11T09:37:56;19.67;;;8.87;;
14181;SDS011;7171;50.936;6.764;2024-01-11T09:40:22;13.13;;;8.67;;
14181;SDS011;7171;50.936;6.764;2024-01-11T09:42:49;15.80;;;8.73;;
14181;SDS011;7171;50.936;6.764;2024-01-11T09:45:17;18.43;;;9.23;;
14181;SDS011;7171;50.936;6.764;2024-01-11T09:47:44;15.70;;;8.83;;
14181;SDS011;7171;50.936;6.764;2024-01-11T09:50:12;16.27;;;7.77;;
14181;SDS011;7171;50.936;6.764;2024-01-11T09:52:44;22.73;;;9.23;;
14181;SDS011;7171;50.936;6.764;2024-01-11T09:55:12;16.53;;;9.27;;
14181;SDS011;7171;50.936;6.764;2024-01-11T09:57:41;13.63;;;7.43;;
14181;SDS011;7171;50.936;6.764;2024-01-11T10:00:10;18.13;;;8.73;;
14181;SDS011;7171;50.936;6.764;2024-01-11T10:02:39;14.80;;;8.80;;
14181;SDS011;7171;50.936;6.764;2024-01-11T10:05:06;14.67;;;10.23;;
14181;SDS011;7171;50.936;6.764;2024-01-11T10:07:33;11.10;;;8.83;;
14181;SDS011;7171;50.936;6.764;2024-01-11T10:10:02;17.17;;;10.27;;
14181;SDS011;7171;50.936;6.764;2024-01-11T10:12:29;19.17;;;10.47;;
14181;SDS011;7171;50.936;6.764;2024-01-11T10:14:59;14.70;;;10.30;;
14181;SDS011;7171;50.936;6.764;2024-01-11T10:17:32;19.57;;;11.17;;
14181;SDS011;7171;50.936;6.764;2024-01-11T10:19:59;19.73;;;10.40;;
14181;SDS011;7171;50.936;6.764;2024-01-11T10:22:27;19.27;;;10.47;;
14181;SDS011;7171;50.936;6.764;2024-01-11T10:25:09;18.77;;;12.43;;
14181;SDS011;7171;50.936;6.764;2024-01-11T10:27:37;18.90;;;11.57;;
14181;SDS011;7171;50.936;6.764;2024-01-11T10:30:03;16.10;;;9.97;;
14181;SDS011;7171;50.936;6.764;2024-01-11T10:32:32;20.00;;;11.13;;
14181;SDS011;7171;50.936;6.764;2024-01-11T10:34:59;18.07;;;10.33;;
14181;SDS011;7171;50.936;6.764;2024-01-11T10:37:29;20.27;;;12.33;;
14181;SDS011;7171;50.936;6.764;2024-01-11T10:39:57;18.33;;;11.70;;
14181;SDS011;7171;50.936;6.764;2024-01-11T10:42:25;25.23;;;12.67;;
14181;SDS011;7171;50.936;6.764;2024-01-11T10:44:56;16.47;;;9.73;;
14181;SDS011;7171;50.936;6.764;2024-01-11T10:47:28;20.23;;;11.47;;
14181;SDS011;7171;50.936;6.764;2024-01-11T10:49:56;31.17;;;11.93;;
14181;SDS011;7171;50.936;6.764;2024-01-11T10:52:27;24.23;;;9.77;;
14181;SDS011;7171;50.936;6.764;2024-01-11T10:54:57;15.80;;;11.23;;
14181;SDS011;7171;50.936;6.764;2024-01-11T10:57:26;21.53;;;11.33;;
14181;SDS011;7171;50.936;6.764;2024-01-11T10:59:54;23.00;;;12.97;;
14181;SDS011;7171;50.936;6.764;2024-01-11T11:02:22;24.17;;;12.57;;
14181;SDS011;7171;50.936;6.764;2024-01-11T11:04:49;20.50;;;12.13;;
14181;SDS011;7171;50.936;6.764;2024-01-11T11:07:19;25.07;;;12.17;;
14181;SDS011;7171;50.936;6.764;2024-01-11T11:09:46;21.93;;;13.40;;
14181;SDS011;7171;50.936;6.764;2024-01-11T11:12:17;29.00;;;13.70;;
14181;SDS011;7171;50.936;6.764;2024-01-11T11:14:47;18.27;;;10.77;;
14181;SDS011;7171;50.936;6.764;2024-01-11T11:17:14;18.90;;;12.17;;
14181;SDS011;7171;50.936;6.764;2024-01-11T11:19:41;21.10;;;12.10;;
14181;SDS011;7171;50.936;6.764;2024-01-11T11:22:08;19.90;;;11.37;;
14181;SDS011;7171;50.936;6.764;2024-01-11T11:24:35;18.60;;;12.10;;
14181;SDS011;7171;50.936;6.764;2024-01-11T11:27:02;18.20;;;11.30;;
14181;SDS011;7171;50.936;6.764;2024-01-11T11:29:29;17.77;;;11.27;;
14181;SDS011;7171;50.936;6.764;2024-01-11T11:31:57;19.03;;;10.77;;
14181;SDS011;7171;50.936;6.764;2024-01-11T11:37:06;22.07;;;13.80;;
14181;SDS011;7171;50.936;6.764;2024-01-11T11:39:33;18.40;;;10.33;;
14181;SDS011;7171;50.936;6.764;2024-01-11T11:41:59;25.03;;;10.73;;
14181;SDS011;7171;50.936;6.764;2024-01-11T11:44:28;15.73;;;9.40;;
14181;SDS011;7171;50.936;6.764;2024-01-11T11:46:57;17.00;;;10.07;;
14181;SDS011;7171;50.936;6.764;2024-01-11T11:49:57;19.20;;;11.63;;
14181;SDS011;7171;50.936;6.764;2024-01-11T11:52:31;13.60;;;10.03;;
14181;SDS011;7171;50.936;6.764;2024-01-11T11:54:59;27.87;;;10.67;;
14181;SDS011;7171;50.936;6.764;2024-01-11T11:57:27;20.73;;;10.83;;
14181;SDS011;7171;50.936;6.764;2024-01-11T11:59:53;19.33;;;11.30;;
14181;SDS011;7171;50.936;6.764;2024-01-11T12:02:23;23.30;;;11.57;;
14181;SDS011;7171;50.936;6.764;2024-01-11T12:04:51;18.03;;;9.97;;
14181;SDS011;7171;50.936;6.764;2024-01-11T12:07:18;16.30;;;9.83;;
14181;SDS011;7171;50.936;6.764;2024-01-11T12:09:46;14.67;;;10.00;;
14181;SDS011;7171;50.936;6.764;2024-01-11T12:12:13;19.27;;;10.77;;
14181;SDS011;7171;50.936;6.764;2024-01-11T12:14:40;19.43;;;9.57;;
14181;SDS011;7171;50.936;6.764;2024-01-11T12:17:07;19.87;;;11.17;;
14181;SDS011;7171;50.936;6.764;2024-01-11T12:19:36;19.57;;;11.17;;
14181;SDS011;7171;50.936;6.764;2024-01-11T12:22:03;20.13;;;10.53;;
14181;SDS011;7171;50.936;6.764;2024-01-11T12:24:29;20.13;;;11.30;;
14181;SDS011;7171;50.936;6.764;2024-01-11T12:26:58;18.33;;;10.50;;
14181;SDS011;7171;50.936;6.764;2024-01-11T12:29:25;22.03;;;11.77;;
14181;SDS011;7171;50.936;6.764;2024-01-11T12:31:54;20.80;;;11.10;;
14181;SDS011;7171;50.936;6.764;2024-01-11T12:34:22;19.77;;;11.87;;
14181;SDS011;7171;50.936;6.764;2024-01-11T12:36:51;22.50;;;10.00;;
14181;SDS011;7171;50.936;6.764;2024-01-11T12:39:18;18.73;;;10.47;;
14181;SDS011;7171;50.936;6.764;2024-01-11T12:41:47;17.77;;;11.27;;
14181;SDS011;7171;50.936;6.764;2024-01-11T12:44:14;17.53;;;9.53;;
14181;SDS011;7171;50.936;6.764;2024-01-11T12:46:43;15.93;;;9.93;;
14181;SDS011;7171;50.936;6.764;2024-01-11T12:49:09;21.07;;;10.53;;
14181;SDS011;7171;50.936;6.764;2024-01-11T12:51:37;16.37;;;9.90;;
14181;SDS011;7171;50.936;6.764;2024-01-11T12:54:06;18.63;;;11.43;;
14181;SDS011;7171;50.936;6.764;2024-01-11T12:56:40;16.07;;;9.20;;
14181;SDS011;7171;50.936;6.764;2024-01-11T12:59:07;15.50;;;10.50;;
14181;SDS011;7171;50.936;6.764;2024-01-11T13:01:34;17.33;;;9.60;;
14181;SDS011;7171;50.936;6.764;2024-01-11T13:04:01;20.80;;;10.57;;
14181;SDS011;7171;50.936;6.764;2024-01-11T13:06:28;14.53;;;9.17;;
14181;SDS011;7171;50.936;6.764;2024-01-11T13:08:56;15.73;;;8.90;;
14181;SDS011;7171;50.936;6.764;2024-01-11T13:11:24;15.33;;;9.80;;
14181;SDS011;7171;50.936;6.764;2024-01-11T13:13:51;19.70;;;10.33;;
14181;SDS011;7171;50.936;6.764;2024-01-11T13:16:18;19.57;;;9.60;;
14181;SDS011;7171;50.936;6.764;2024-01-11T13:18:44;17.27;;;9.37;;
14181;SDS011;7171;50.936;6.764;2024-01-11T13:21:11;20.23;;;11.60;;
14181;SDS011;7171;50.936;6.764;2024-01-11T13:23:38;19.87;;;12.10;;
14181;SDS011;7171;50.936;6.764;2024-01-11T13:26:05;18.37;;;10.60;;
14181;SDS011;7171;50.936;6.764;2024-01-11T13:28:34;15.47;;;9.30;;
14181;SDS011;7171;50.936;6.764;2024-01-11T13:31:01;23.97;;;11.23;;
14181;SDS011;7171;50.936;6.764;2024-01-11T13:33:28;20.87;;;11.93;;
14181;SDS011;7171;50.936;6.764;2024-01-11T13:35:55;19.13;;;10.90;;
14181;SDS011;7171;50.936;6.764;2024-01-11T13:38:22;21.60;;;10.80;;
14181;SDS011;7171;50.936;6.764;2024-01-11T13:40:49;18.67;;;11.00;;
14181;SDS011;7171;50.936;6.764;2024-01-11T13:43:15;21.83;;;10.57;;
14181;SDS011;7171;50.936;6.764;2024-01-11T13:45:43;21.17;;;10.70;;
14181;SDS011;7171;50.936;6.764;2024-01-11T13:48:10;22.60;;;12.80;;
14181;SDS011;7171;50.936;6.764;2024-01-11T13:50:37;20.73;;;11.83;;
14181;SDS011;7171;50.936;6.764;2024-01-11T13:53:03;26.30;;;10.83;;
14181;SDS011;7171;50.936;6.764;2024-01-11T13:55:31;24.37;;;12.50;;
14181;SDS011;7171;50.936;6.764;2024-01-11T13:58:03;24.03;;;12.33;;
14181;SDS011;7171;50.936;6.764;2024-01-11T14:00:29;18.30;;;9.33;;
14181;SDS011;7171;50.936;6.764;2024-01-11T14:02:58;19.53;;;11.17;;
14181;SDS011;7171;50.936;6.764;2024-01-11T14:05:24;17.13;;;10.60;;
14181;SDS011;7171;50.936;6.764;2024-01-11T14:07:51;19.17;;;10.57;;
14181;SDS011;7171;50.936;6.764;2024-01-11T14:10:23;20.47;;;11.10;;
14181;SDS011;7171;50.936;6.764;2024-01-11T14:12:50;23.03;;;10.70;;
14181;SDS011;7171;50.936;6.764;2024-01-11T14:15:17;19.67;;;10.90;;
14181;SDS011;7171;50.936;6.764;2024-01-11T14:17:44;20.90;;;12.10;;
14181;SDS011;7171;50.936;6.764;2024-01-11T14:20:13;25.70;;;10.73;;
14181;SDS011;7171;50.936;6.764;2024-01-11T14:22:40;19.03;;;9.93;;
14181;SDS011;7171;50.936;6.764;2024-01-11T14:25:07;16.93;;;9.33;;
14181;SDS011;7171;50.936;6.764;2024-01-11T14:27:35;22.20;;;11.70;;
14181;SDS011;7171;50.936;6.764;2024-01-11T14:30:02;21.00;;;11.60;;
14181;SDS011;7171;50.936;6.764;2024-01-11T14:32:31;16.37;;;9.90;;
14181;SDS011;7171;50.936;6.764;2024-01-11T14:34:57;22.50;;;11.40;;
14181;SDS011;7171;50.936;6.764;2024-01-11T14:37:29;17.83;;;10.27;;
14181;SDS011;7171;50.936;6.764;2024-01-11T14:39:56;17.53;;;11.03;;
14181;SDS011;7171;50.936;6.764;2024-01-11T14:42:24;24.37;;;13.10;;
14181;SDS011;7171;50.936;6.764;2024-01-11T14:44:51;18.73;;;10.90;;
14181;SDS011;7171;50.936;6.764;2024-01-11T14:47:17;19.43;;;11.57;;
14181;SDS011;7171;50.936;6.764;2024-01-11T14:49:44;18.93;;;11.63;;